Bookmark and Share
Track history (hours):
 

Sea Jet

More information available from US FCC via Universal Licensing System and Coast Guard Vessel Documentation Center.

Last reported at 2014-Apr-13 22:30 UTC. Time now 2014-Apr-16 10:42 UTC.
Position N 41°20' W 072°05'.

Length 33 m.

Type: High speed craft. MMSI: 367117430.

NotesDate/timePositionNaut miles runAvg speedWind from/ knotsBaromVisibWave heightAir tempDewpointWater temp
2014-Apr-13 22:30N 41°20' W 072°05'1 0.6
2014-Apr-13 21:16N 41°19' W 072°05'3 3.5
2014-Apr-13 20:34N 41°21' W 072°06'0 0.0
2014-Apr-13 19:31N 41°21' W 072°06'0 0.0
2014-Apr-13 18:34N 41°21' W 072°06'0 0.0
2014-Apr-13 17:34N 41°21' W 072°06'0 0.0
2014-Apr-13 16:34N 41°21' W 072°06'0 0.0
2014-Apr-13 15:34N 41°21' W 072°06'2 1.8
2014-Apr-13 14:34N 41°20' W 072°05'10 9.6
2014-Apr-13 13:33N 41°12' W 072°12'10 9.9
2014-Apr-13 12:33N 41°20' W 072°05'9 8.5
2014-Apr-13 11:34N 41°13' W 072°11'10 9.5
2014-Apr-13 10:33N 41°21' W 072°06'1 0.1
2014-Apr-13 00:34N 41°20' W 072°05'9 8.5
2014-Apr-12 23:33N 41°13' W 072°11'9 8.6
2014-Apr-12 22:34N 41°20' W 072°05'9 9.1
2014-Apr-12 21:34N 41°13' W 072°12'10 9.8
2014-Apr-12 20:33N 41°21' W 072°06'2 0.4
2014-Apr-12 14:34N 41°19' W 072°05'8 8.3
2014-Apr-12 13:34N 41°13' W 072°12'9 8.6
2014-Apr-12 12:34N 41°20' W 072°05'9 9.1
2014-Apr-12 11:34N 41°12' W 072°12'1010.2
2014-Apr-12 10:33N 41°21' W 072°06'1 0.1
2014-Apr-12 00:33N 41°20' W 072°05'1010.4
2014-Apr-11 23:34N 41°12' W 072°13'1110.5
2014-Apr-11 22:33N 41°20' W 072°05'9 9.3
2014-Apr-11 21:33N 41°13' W 072°12'1010.0
2014-Apr-11 20:33N 41°21' W 072°06'1 0.2
2014-Apr-11 14:34N 41°20' W 072°05'1010.0
2014-Apr-11 13:34N 41°12' W 072°12'10 9.6
2014-Apr-11 12:33N 41°20' W 072°05'9 8.5
2014-Apr-11 11:33N 41°13' W 072°12'1010.0
2014-Apr-11 10:33N 41°21' W 072°06'  
2014-Apr-07 00:33N 41°21' W 072°05'1010.0
2014-Apr-06 23:34N 41°12' W 072°12'10 9.9
2014-Apr-06 22:34N 41°20' W 072°05'9 9.2
2014-Apr-06 21:34N 41°13' W 072°12'10 9.8
2014-Apr-06 20:34N 41°21' W 072°06'0 0.0
2014-Apr-06 19:34N 41°21' W 072°06'0 0.0
2014-Apr-06 18:34N 41°21' W 072°06'0 0.0
2014-Apr-06 17:34N 41°21' W 072°06'0 0.0
2014-Apr-06 16:34N 41°21' W 072°06'0 0.0
2014-Apr-06 15:34N 41°21' W 072°06'3 2.7
2014-Apr-06 14:34N 41°19' W 072°05'8 8.1
2014-Apr-06 13:34N 41°12' W 072°12'9 9.3
2014-Apr-06 12:34N 41°20' W 072°05'9 8.8
2014-Apr-06 11:34N 41°13' W 072°12'10 9.6
2014-Apr-06 10:33N 41°21' W 072°06'2 0.2
2014-Apr-06 00:34N 41°20' W 072°05'9 9.1
2014-Apr-05 23:34N 41°12' W 072°12'9 9.4
2014-Apr-05 22:33N 41°20' W 072°05'9 8.7
2014-Apr-05 21:33N 41°13' W 072°11'9 9.4
2014-Apr-05 20:33N 41°21' W 072°06'1 0.2
2014-Apr-05 14:33N 41°20' W 072°05'8 8.5
2014-Apr-05 13:34N 41°13' W 072°11'8 8.4
2014-Apr-05 12:34N 41°20' W 072°05'9 8.7
2014-Apr-05 11:34N 41°13' W 072°12'10 9.7
2014-Apr-05 10:33N 41°21' W 072°06'1 0.1
2014-Apr-05 00:34N 41°20' W 072°05'9 9.2
2014-Apr-04 23:34N 41°13' W 072°12'9 9.2
2014-Apr-04 22:34N 41°20' W 072°05'1010.3
2014-Apr-04 21:34N 41°12' W 072°13'1111.1
2014-Apr-04 20:33N 41°21' W 072°06'3 0.7
2014-Apr-04 16:33N 41°19' W 072°05'1 0.6
2014-Apr-04 14:34N 41°20' W 072°05'9 9.4
2014-Apr-04 13:34N 41°12' W 072°12'9 9.4
2014-Apr-04 12:34N 41°20' W 072°05'8 8.4
2014-Apr-04 11:34N 41°13' W 072°11'10 9.6
2014-Apr-04 10:34N 41°21' W 072°06'  

Dump ship's entire track history

sailing weather and tide predictions

Sea Jet — WDD2601 — position and weather